Time;durP1;ratioP1;P1;durP2;ratioP2;P2;SDS_P1;SDS_P2;PMS_P1;PMS_P2;Temp;Humidity;BMP_temperature;BMP_pressure;BME280_temperature;BME280_humidity;BME280_pressure;Samples;Min_cycle;Max_cycle;Signal;HPM_P1;HPM_P2
2024/04/05 00:02:25;;;;;;;10.57;3.00;;;;;;;12.97;84.65;100088.72;5067343;28;20219;-78
2024/04/05 00:04:51;;;;;;;11.00;2.93;;;;;;;13.01;84.83;100092.09;5049818;28;20208;-76
2024/04/05 00:07:16;;;;;;;11.10;3.27;;;;;;;13.08;84.50;100098.81;5049327;28;20212;-78
2024/04/05 00:09:44;;;;;;;8.20;3.33;;;;;;;13.20;83.31;100119.38;5050068;28;20285;-77
2024/04/05 00:12:09;;;;;;;8.57;2.73;;;;;;;13.23;83.14;100128.88;5049789;28;20208;-78
2024/04/05 00:14:36;;;;;;;7.27;2.87;;;;;;;13.24;82.79;100149.81;5050433;28;20215;-78
2024/04/05 00:17:01;;;;;;;12.20;3.30;;;;;;;13.11;82.84;100172.09;5050059;28;20290;-78
2024/04/05 00:19:27;;;;;;;8.93;2.90;;;;;;;13.13;82.34;100178.13;5049880;28;20705;-78
2024/04/05 00:21:53;;;;;;;7.50;3.13;;;;;;;13.06;82.73;100181.88;5049996;28;20211;-77
2024/04/05 00:24:19;;;;;;;7.57;2.90;;;;;;;13.16;82.28;100180.66;5049725;28;20819;-77
2024/04/05 00:26:46;;;;;;;12.70;2.97;;;;;;;13.13;82.04;100187.78;5049507;28;20792;-77
2024/04/05 00:29:12;;;;;;;8.47;2.80;;;;;;;13.04;82.06;100191.53;5050445;28;20232;-78
2024/04/05 00:31:38;;;;;;;10.07;2.97;;;;;;;12.84;82.31;100205.28;5049749;28;20253;-78
2024/04/05 00:34:04;;;;;;;7.93;2.63;;;;;;;12.87;82.33;100194.72;5049636;28;20216;-76
2024/04/05 00:36:29;;;;;;;7.47;2.70;;;;;;;13.04;81.72;100181.94;5049979;28;20208;-77
2024/04/05 00:38:56;;;;;;;9.97;2.63;;;;;;;13.04;81.84;100195.03;5049734;28;20297;-77
2024/04/05 00:41:21;;;;;;;6.60;2.87;;;;;;;12.97;81.58;100213.63;5049545;28;20205;-78
2024/04/05 00:43:49;;;;;;;10.07;2.93;;;;;;;12.99;81.32;100211.81;5050297;28;20215;-78
2024/04/05 00:46:14;;;;;;;11.03;2.80;;;;;;;13.01;80.77;100229.19;5049663;28;20781;-77
2024/04/05 00:48:42;;;;;;;13.07;3.03;;;;;;;12.94;80.93;100239.91;5049543;28;20232;-78
2024/04/05 00:51:08;;;;;;;8.97;3.10;;;;;;;12.76;80.52;100244.81;5048995;28;20722;-77
2024/04/05 00:53:35;;;;;;;8.17;2.60;;;;;;;12.71;80.10;100247.59;5050160;28;20198;-78
2024/04/05 00:56:02;;;;;;;7.87;2.90;;;;;;;12.73;80.45;100242.31;5049528;28;20270;-77
2024/04/05 00:58:28;;;;;;;10.13;2.20;;;;;;;12.68;81.23;100245.06;5053100;28;20302;-78
2024/04/05 01:00:56;;;;;;;10.00;2.90;;;;;;;12.79;80.16;100243.88;5059669;28;20218;-78
2024/04/05 01:03:23;;;;;;;7.43;2.47;;;;;;;12.54;80.07;100268.19;5073198;28;20206;-77
2024/04/05 01:05:49;;;;;;;8.73;3.03;;;;;;;12.60;80.63;100264.53;5073722;28;20669;-77
2024/04/05 01:08:17;;;;;;;9.13;2.37;;;;;;;12.74;80.25;100257.09;5073668;28;20226;-78
2024/04/05 01:10:43;;;;;;;14.10;2.47;;;;;;;12.74;80.21;100271.97;5072530;28;20205;-77
2024/04/05 01:13:11;;;;;;;10.17;3.30;;;;;;;12.65;79.40;100286.22;5072456;28;20749;-77
2024/04/05 01:15:38;;;;;;;8.70;2.57;;;;;;;12.59;79.41;100287.25;5073984;28;20211;-76
2024/04/05 01:18:08;;;;;;;10.93;3.10;;;;;;;12.26;80.14;100284.69;5072992;28;20229;-78
2024/04/05 01:20:35;;;;;;;13.07;3.10;;;;;;;12.46;80.25;100272.78;5073517;28;20213;-78
2024/04/05 01:23:02;;;;;;;7.23;2.23;;;;;;;12.56;80.00;100279.47;5073673;28;20290;-76
2024/04/05 01:25:30;;;;;;;10.80;2.87;;;;;;;12.23;80.37;100289.16;5071888;28;20252;-77
2024/04/05 01:27:56;;;;;;;9.90;2.47;;;;;;;12.36;80.57;100269.59;5072984;28;20226;-78
2024/04/05 01:30:22;;;;;;;10.47;2.33;;;;;;;12.38;80.60;100262.53;5072769;28;20227;-78
2024/04/05 01:32:52;;;;;;;11.27;2.87;;;;;;;12.44;80.33;100264.97;5068006;28;20254;-77
2024/04/05 01:35:18;;;;;;;9.43;2.80;;;;;;;12.40;79.25;100286.91;5052024;28;20235;-78
2024/04/05 01:37:44;;;;;;;8.77;2.67;;;;;;;12.35;80.02;100299.28;5052263;28;20200;-78
2024/04/05 01:40:10;;;;;;;8.50;2.30;;;;;;;12.25;80.04;100283.00;5068744;28;20205;-78
2024/04/05 01:42:37;;;;;;;12.17;2.63;;;;;;;12.12;80.44;100265.91;5072602;28;20280;-77
2024/04/05 01:45:03;;;;;;;6.23;1.97;;;;;;;12.07;79.77;100273.03;5072497;28;20210;-77
2024/04/05 01:47:30;;;;;;;13.47;2.93;;;;;;;12.07;80.04;100271.28;5073056;28;20562;-77
2024/04/05 01:49:55;;;;;;;7.33;2.40;;;;;;;11.99;79.08;100275.00;5072224;28;20329;-77
2024/04/05 01:52:22;;;;;;;9.87;2.40;;;;;;;12.18;78.93;100284.06;5072691;28;20210;-77
2024/04/05 01:54:48;;;;;;;9.43;3.03;;;;;;;12.27;79.24;100296.03;5072263;28;20678;-77
2024/04/05 01:57:14;;;;;;;7.90;2.00;;;;;;;12.31;78.74;100298.53;5072150;28;20689;-76
2024/04/05 01:59:45;;;;;;;13.70;2.87;;;;;;;12.21;79.67;100297.06;5072191;28;20215;-77
2024/04/05 02:02:12;;;;;;;10.57;2.87;;;;;;;11.92;79.17;100303.94;5071772;28;20247;-78
2024/04/05 02:04:37;;;;;;;9.73;3.17;;;;;;;12.04;79.49;100286.22;5071977;28;20207;-77
2024/04/05 02:07:03;;;;;;;9.47;2.83;;;;;;;12.05;79.41;100298.38;5072374;28;20207;-78
2024/04/05 02:09:29;;;;;;;7.93;2.00;;;;;;;12.00;78.46;100308.97;5072783;28;20718;-78
2024/04/05 02:11:55;;;;;;;9.23;2.63;;;;;;;12.02;78.40;100307.16;5072400;28;20256;-78
2024/04/05 02:14:20;;;;;;;9.73;2.30;;;;;;;12.16;78.86;100309.41;5072165;28;20210;-78
2024/04/05 02:16:48;;;;;;;10.93;2.37;;;;;;;12.31;78.56;100313.38;5071818;28;20208;-78
2024/04/05 02:19:14;;;;;;;8.57;2.73;;;;;;;12.28;77.85;100329.16;5070979;28;20640;-79
2024/04/05 02:21:40;;;;;;;6.20;2.50;;;;;;;12.35;77.96;100330.72;5071981;28;20257;-78
2024/04/05 02:24:05;;;;;;;9.37;2.67;;;;;;;12.20;78.03;100339.81;5071957;28;20351;-77
2024/04/05 02:26:32;;;;;;;11.37;2.90;;;;;;;12.30;78.29;100327.34;5072226;28;20336;-77
2024/04/05 02:28:57;;;;;;;15.07;2.20;;;;;;;12.27;78.14;100323.06;5071932;28;20230;-78
2024/04/05 02:31:23;;;;;;;8.23;2.23;;;;;;;12.32;78.62;100334.25;5071469;28;20745;-78
2024/04/05 02:33:50;;;;;;;11.20;3.77;;;;;;;12.20;78.44;100337.22;5066889;28;20205;-78
2024/04/05 02:36:17;;;;;;;10.10;2.80;;;;;;;12.17;79.03;100339.03;5052088;28;20285;-77
2024/04/05 02:38:42;;;;;;;9.73;2.70;;;;;;;12.02;77.86;100341.19;5051828;28;20235;-78
2024/04/05 02:41:08;;;;;;;7.03;2.93;;;;;;;11.86;78.56;100339.84;5051200;28;20665;-78
2024/04/05 02:43:34;;;;;;;5.57;2.77;;;;;;;12.14;78.38;100326.06;5052384;28;20203;-78
2024/04/05 02:46:00;;;;;;;10.07;2.80;;;;;;;12.28;78.17;100327.38;5052149;28;20217;-79
2024/04/05 02:48:26;;;;;;;6.73;2.03;;;;;;;12.39;78.35;100320.97;5052000;28;20231;-78
2024/04/05 02:50:53;;;;;;;7.83;2.57;;;;;;;12.30;78.02;100322.13;5052062;28;20285;-78
2024/04/05 02:53:19;;;;;;;7.47;1.97;;;;;;;12.36;79.34;100310.63;5051177;28;20257;-75
2024/04/05 02:55:45;;;;;;;7.37;2.63;;;;;;;12.07;77.66;100341.03;5051160;28;20208;-77
2024/04/05 02:58:10;;;;;;;8.57;2.40;;;;;;;12.29;78.39;100328.25;5052329;28;20267;-77
2024/04/05 03:00:37;;;;;;;7.60;1.93;;;;;;;12.29;79.62;100317.78;5061896;28;20226;-78
2024/04/05 03:03:03;;;;;;;9.40;2.03;;;;;;;12.24;79.51;100315.28;5070989;28;20261;-78
2024/04/05 03:05:30;;;;;;;7.50;2.40;;;;;;;12.17;79.57;100305.91;5069982;28;20207;-78
2024/04/05 03:07:56;;;;;;;8.20;2.70;;;;;;;12.18;79.56;100299.75;5051577;28;20231;-78
2024/04/05 03:10:23;;;;;;;8.13;2.60;;;;;;;12.16;79.70;100300.72;5051032;28;20274;-77
2024/04/05 03:12:50;;;;;;;5.77;2.10;;;;;;;12.13;79.59;100301.66;5051004;28;20233;-78
2024/04/05 03:15:16;;;;;;;9.87;2.20;;;;;;;12.09;79.41;100308.72;5051590;28;20209;-77
2024/04/05 03:17:43;;;;;;;10.73;2.63;;;;;;;12.12;79.59;100300.78;5051176;28;20250;-78
2024/04/05 03:20:12;;;;;;;10.43;2.53;;;;;;;12.00;80.23;100302.88;5051036;28;20577;-77
2024/04/05 03:22:38;;;;;;;7.10;3.00;;;;;;;12.06;80.63;100285.25;5051348;28;20207;-78
2024/04/05 03:25:06;;;;;;;11.30;2.87;;;;;;;12.05;81.00;100262.63;5050864;28;20273;-76
2024/04/05 03:27:32;;;;;;;8.37;1.97;;;;;;;12.05;81.37;100251.28;5051347;28;20674;-78
2024/04/05 03:29:58;;;;;;;6.23;2.50;;;;;;;11.97;81.49;100243.69;5051674;28;20280;-78
2024/04/05 03:32:24;;;;;;;8.87;2.47;;;;;;;11.87;81.05;100243.03;5050222;28;20212;-78
2024/04/05 03:34:51;;;;;;;7.97;3.07;;;;;;;11.94;81.45;100237.66;5050710;28;20230;-77
2024/04/05 03:37:17;;;;;;;12.20;2.23;;;;;;;12.00;81.90;100227.03;5050520;28;20241;-78
2024/04/05 03:39:44;;;;;;;6.40;2.00;;;;;;;11.99;81.61;100230.53;5050779;28;20231;-78
2024/04/05 03:42:11;;;;;;;5.60;1.90;;;;;;;11.92;82.37;100230.69;5051261;28;20216;-76
2024/04/05 03:44:37;;;;;;;7.30;3.03;;;;;;;11.96;82.13;100226.25;5053040;28;20627;-77
2024/04/05 03:47:03;;;;;;;9.07;2.27;;;;;;;12.00;81.94;100219.19;5053625;28;20265;-78
2024/04/05 03:49:29;;;;;;;6.17;2.20;;;;;;;11.90;83.00;100213.34;5060805;28;20234;-77
2024/04/05 03:51:55;;;;;;;8.03;2.30;;;;;;;11.92;82.51;100203.69;5066656;28;20267;-77
2024/04/05 03:54:21;;;;;;;7.63;2.03;;;;;;;11.85;83.30;100202.09;5058035;28;20210;-75
2024/04/05 03:56:48;;;;;;;6.63;2.07;;;;;;;11.90;83.80;100198.50;5069030;28;20234;-76
2024/04/05 03:59:15;;;;;;;9.03;2.00;;;;;;;11.88;83.94;100191.56;5070837;28;20269;-78
2024/04/05 04:01:41;;;;;;;6.93;2.43;;;;;;;11.91;83.77;100181.03;5070339;28;20271;-78
2024/04/05 04:04:06;;;;;;;4.20;1.93;;;;;;;11.90;84.91;100174.97;5070510;28;20223;-77
2024/04/05 04:06:33;;;;;;;9.77;2.30;;;;;;;11.94;84.79;100161.81;5070713;28;20679;-77
2024/04/05 04:08:58;;;;;;;6.20;2.03;;;;;;;11.96;84.98;100153.00;5070492;28;20229;-77
2024/04/05 04:11:24;;;;;;;8.80;1.97;;;;;;;11.98;84.91;100164.28;5070595;28;20210;-77
2024/04/05 04:13:50;;;;;;;7.97;2.43;;;;;;;12.00;84.39;100162.47;5069127;28;20210;-76
2024/04/05 04:16:18;;;;;;;6.67;2.10;;;;;;;12.08;83.69;100173.56;5053277;28;20885;-77
2024/04/05 04:18:46;;;;;;;5.27;2.07;;;;;;;12.12;84.58;100169.97;5050638;28;20285;-77
2024/04/05 04:21:13;;;;;;;8.80;2.87;;;;;;;12.15;83.73;100187.34;5056998;28;20285;-77
2024/04/05 04:23:38;;;;;;;10.83;2.80;;;;;;;12.23;83.42;100202.78;5070681;28;20587;-78
2024/04/05 04:26:05;;;;;;;8.87;2.53;;;;;;;12.34;82.31;100224.28;5069761;28;20665;-77
2024/04/05 04:28:32;;;;;;;5.27;2.20;;;;;;;12.33;82.61;100227.81;5070763;28;20263;-77
2024/04/05 04:30:59;;;;;;;8.37;2.30;;;;;;;12.32;81.84;100239.16;5066686;28;20232;-77
2024/04/05 04:33:26;;;;;;;8.37;2.70;;;;;;;12.43;82.09;100241.50;5053973;28;20276;-78
2024/04/05 04:35:52;;;;;;;5.17;2.20;;;;;;;12.47;81.67;100250.97;5055149;28;20211;-76
2024/04/05 04:38:18;;;;;;;6.03;2.87;;;;;;;12.49;81.92;100255.25;5055265;28;20663;-78
2024/04/05 04:40:44;;;;;;;5.93;1.97;;;;;;;12.56;81.05;100262.91;5055630;28;20208;-77
2024/04/05 04:43:10;;;;;;;7.37;2.40;;;;;;;12.64;80.65;100276.63;5055035;28;20208;-77
2024/04/05 04:45:36;;;;;;;6.70;1.83;;;;;;;12.68;80.59;100284.34;5054196;28;20211;-76
2024/04/05 04:48:02;;;;;;;9.93;2.70;;;;;;;12.55;80.99;100272.53;5056474;28;20725;-77
2024/04/05 04:50:29;;;;;;;8.50;2.53;;;;;;;12.67;80.99;100287.88;5053380;28;20278;-77
2024/04/05 04:52:55;;;;;;;5.73;2.27;;;;;;;12.64;81.32;100280.09;5066115;28;20272;-77
2024/04/05 04:55:21;;;;;;;11.60;3.20;;;;;;;12.57;80.36;100293.44;5073267;28;20665;-77
2024/04/05 04:57:47;;;;;;;6.27;2.47;;;;;;;12.68;81.70;100286.09;5073479;28;20670;-77
2024/04/05 05:00:16;;;;;;;7.37;2.70;;;;;;;12.71;81.39;100288.66;5074644;28;20249;-77
2024/04/05 05:02:43;;;;;;;5.33;1.60;;;;;;;12.74;81.94;100280.69;5074569;28;20206;-77
2024/04/05 05:05:09;;;;;;;6.80;2.10;;;;;;;12.74;82.29;100251.88;5074392;28;20208;-78
2024/04/05 05:07:36;;;;;;;9.27;2.40;;;;;;;12.77;82.59;100254.41;5074477;28;20238;-79
2024/04/05 05:10:04;;;;;;;3.80;1.83;;;;;;;12.76;81.44;100260.53;5073585;28;20242;-76
2024/04/05 05:12:30;;;;;;;6.10;2.77;;;;;;;12.81;81.31;100269.13;5073879;28;20630;-78
2024/04/05 05:14:56;;;;;;;5.50;2.23;;;;;;;12.78;81.22;100284.91;5074385;28;20243;-77
2024/04/05 05:17:21;;;;;;;7.37;1.90;;;;;;;12.74;81.91;100264.97;5073701;28;20210;-78
2024/04/05 05:19:47;;;;;;;6.30;1.87;;;;;;;12.75;82.67;100250.97;5072493;28;20222;-77
2024/04/05 05:22:13;;;;;;;7.83;2.20;;;;;;;12.76;81.83;100259.69;5073735;28;20261;-78
2024/04/05 05:24:40;;;;;;;7.83;2.30;;;;;;;12.80;81.48;100264.78;5071871;28;20525;-78
2024/04/05 05:27:06;;;;;;;5.20;2.10;;;;;;;12.75;82.01;100264.06;5072639;28;20206;-77
2024/04/05 05:29:32;;;;;;;5.77;2.33;;;;;;;12.76;82.44;100255.28;5072613;28;20284;-77
2024/04/05 05:31:58;;;;;;;7.47;1.60;;;;;;;12.81;82.58;100249.94;5065420;28;20203;-77
2024/04/05 05:34:24;;;;;;;7.00;2.20;;;;;;;12.71;83.48;100244.13;5073534;28;20549;-78
2024/04/05 05:36:49;;;;;;;5.27;1.80;;;;;;;12.75;83.87;100224.78;5074680;28;20204;-78
2024/04/05 05:39:16;;;;;;;9.77;2.03;;;;;;;12.77;84.02;100222.97;5074212;28;20232;-79
2024/04/05 05:41:42;;;;;;;4.77;2.13;;;;;;;12.78;83.50;100222.06;5073233;28;20746;-78
2024/04/05 05:44:08;;;;;;;4.03;1.83;;;;;;;12.79;84.02;100215.06;5074494;28;20211;-78
2024/04/05 05:46:34;;;;;;;5.80;1.70;;;;;;;12.83;83.93;100227.16;5074156;28;20207;-76
2024/04/05 05:49:00;;;;;;;4.63;2.03;;;;;;;12.85;84.27;100212.25;5074026;28;20219;-77
2024/04/05 05:51:26;;;;;;;5.87;1.63;;;;;;;12.89;84.45;100214.72;5074516;28;20223;-77
2024/04/05 05:53:52;;;;;;;6.37;1.60;;;;;;;12.89;84.73;100214.72;5055211;28;20708;-78
2024/04/05 05:56:18;;;;;;;7.53;1.87;;;;;;;12.95;84.46;100200.56;5053888;28;20259;-78
2024/04/05 05:58:45;;;;;;;8.73;2.20;;;;;;;12.88;85.24;100192.06;5072556;28;20240;-78
2024/04/05 06:01:12;;;;;;;6.37;1.80;;;;;;;12.94;85.36;100170.03;5073797;28;20200;-78
2024/04/05 06:03:37;;;;;;;8.50;1.60;;;;;;;12.99;85.08;100170.75;5074706;28;20203;-77
2024/04/05 06:06:06;;;;;;;3.67;1.93;;;;;;;13.01;84.97;100174.16;5072842;28;20375;-77
2024/04/05 06:08:32;;;;;;;4.80;1.83;;;;;;;13.05;85.19;100178.41;5074201;28;20222;-77
2024/04/05 06:10:58;;;;;;;5.40;1.67;;;;;;;13.06;85.57;100181.88;5072160;28;20412;-78
2024/04/05 06:13:24;;;;;;;4.33;2.03;;;;;;;13.16;85.53;100174.56;5074172;28;20248;-76
2024/04/05 06:15:57;;;;;;;5.43;2.03;;;;;;;13.22;85.33;100190.06;5073359;28;20202;-76
2024/04/05 06:18:26;;;;;;;6.13;1.93;;;;;;;13.26;85.79;100178.56;5074100;28;20228;-77
2024/04/05 06:20:53;;;;;;;5.10;1.90;;;;;;;13.30;85.26;100182.84;5073484;28;20207;-78
2024/04/05 06:23:18;;;;;;;5.23;1.63;;;;;;;13.19;85.04;100191.03;5073146;28;20253;-78
2024/04/05 06:25:51;;;;;;;5.83;2.40;;;;;;;13.31;85.03;100185.41;5072521;28;20203;-78
2024/04/05 06:28:17;;;;;;;4.47;2.20;;;;;;;13.25;85.01;100195.22;5073564;28;20226;-78
2024/04/05 06:30:43;;;;;;;6.00;1.83;;;;;;;13.28;86.17;100182.88;5073154;28;20728;-77
2024/04/05 06:33:10;;;;;;;5.00;1.90;;;;;;;13.34;85.67;100181.84;5061540;28;20213;-77
2024/04/05 06:35:37;;;;;;;4.37;1.83;;;;;;;13.43;85.64;100180.66;5052457;28;20207;-76
2024/04/05 06:38:02;;;;;;;6.37;2.03;;;;;;;13.49;86.56;100160.31;5053738;28;20296;-77
2024/04/05 06:40:29;;;;;;;5.87;2.03;;;;;;;13.52;86.30;100161.97;5052394;28;20621;-76
2024/04/05 06:42:54;;;;;;;4.00;1.90;;;;;;;13.39;86.74;100163.31;5053141;28;20208;-77
2024/04/05 06:45:20;;;;;;;7.67;2.57;;;;;;;13.41;87.17;100149.22;5052884;28;20203;-77
2024/04/05 06:47:46;;;;;;;4.57;2.13;;;;;;;13.47;87.42;100137.69;5053790;28;20206;-77
2024/04/05 06:50:14;;;;;;;4.93;2.43;;;;;;;13.62;86.71;100137.13;5072864;28;20227;-77
2024/04/05 06:52:39;;;;;;;5.70;2.43;;;;;;;13.65;87.67;100136.16;5073694;28;20199;-76
2024/04/05 06:55:05;;;;;;;5.50;2.17;;;;;;;13.67;87.70;100145.66;5068124;28;20208;-80
2024/04/05 06:57:31;;;;;;;4.37;1.63;;;;;;;13.73;86.94;100147.22;5079264;28;20203;-80
2024/04/05 06:59:57;;;;;;;6.57;2.27;;;;;;;13.71;87.55;100143.78;5077920;28;20251;-80
2024/04/05 07:02:22;;;;;;;8.23;2.87;;;;;;;13.81;87.58;100147.78;5077770;28;20203;-80
2024/04/05 07:04:49;;;;;;;6.27;2.00;;;;;;;13.83;87.58;100150.38;5077099;28;20254;-80
2024/04/05 07:07:16;;;;;;;5.97;1.87;;;;;;;13.88;86.61;100156.31;5077388;28;20203;-81
2024/04/05 07:09:44;;;;;;;5.50;2.03;;;;;;;14.04;87.71;100172.34;5075955;28;20224;-79
2024/04/05 07:12:09;;;;;;;5.60;2.20;;;;;;;14.10;86.85;100158.97;5075783;28;20622;-80
2024/04/05 07:14:35;;;;;;;5.57;2.67;;;;;;;14.06;86.19;100197.59;5060403;28;20205;-81
2024/04/05 07:17:01;;;;;;;4.17;2.17;;;;;;;13.98;85.59;100207.53;5055997;28;20200;-80
2024/04/05 07:19:27;;;;;;;5.00;1.90;;;;;;;14.24;86.35;100206.56;5069794;28;20280;-79
2024/04/05 07:21:53;;;;;;;4.80;1.70;;;;;;;14.32;84.85;100227.28;5075719;28;20200;-81
2024/04/05 07:24:21;;;;;;;7.03;2.57;;;;;;;14.32;84.80;100234.31;5075646;28;20273;-81
2024/04/05 07:26:46;;;;;;;5.73;2.30;;;;;;;14.42;84.94;100238.28;5074809;28;20290;-80
2024/04/05 07:29:13;;;;;;;6.70;2.17;;;;;;;14.40;84.58;100243.59;5075412;28;20649;-80
2024/04/05 07:31:38;;;;;;;4.67;1.80;;;;;;;14.53;86.82;100220.34;5075173;28;20216;-80
2024/04/05 07:34:05;;;;;;;6.23;1.80;;;;;;;14.60;88.16;100185.06;5075124;28;20640;-81
2024/04/05 07:36:30;;;;;;;5.63;1.80;;;;;;;14.66;88.52;100165.56;5075446;28;20614;-81
2024/04/05 07:38:57;;;;;;;4.73;2.20;;;;;;;14.69;90.01;100140.03;5075116;28;20232;-82
2024/04/05 07:41:24;;;;;;;3.97;1.80;;;;;;;14.74;89.15;100150.34;5075371;28;20250;-80
2024/04/05 07:43:50;;;;;;;4.13;2.23;;;;;;;14.77;90.16;100138.88;5075008;28;20200;-81
2024/04/05 07:46:16;;;;;;;4.77;1.90;;;;;;;14.80;90.05;100128.22;5074738;28;20285;-82
2024/04/05 07:48:43;;;;;;;3.67;1.53;;;;;;;14.82;90.61;100119.34;5075737;28;20625;-82
2024/04/05 07:51:10;;;;;;;3.03;1.87;;;;;;;14.84;90.34;100108.78;5058598;28;20224;-82
2024/04/05 07:53:37;;;;;;;4.93;2.10;;;;;;;14.85;90.05;100119.25;5068455;28;20227;-80
2024/04/05 07:56:03;;;;;;;4.33;2.20;;;;;;;14.83;89.82;100130.75;5054875;28;20228;-82
2024/04/05 07:58:30;;;;;;;3.40;1.47;;;;;;;14.77;88.61;100166.00;5055417;28;20228;-80
2024/04/05 08:00:56;;;;;;;5.47;2.10;;;;;;;14.81;89.59;100151.81;5054911;28;20205;-83
2024/04/05 08:03:22;;;;;;;6.13;2.10;;;;;;;14.86;89.78;100127.97;5055163;28;20205;-79
2024/04/05 08:05:48;;;;;;;4.33;1.87;;;;;;;14.88;88.31;100155.03;5054347;28;20228;-82
2024/04/05 08:08:14;;;;;;;5.43;1.90;;;;;;;14.96;89.15;100152.09;5055386;28;20247;-79
2024/04/05 08:10:39;;;;;;;5.30;2.07;;;;;;;15.05;90.44;100133.31;5054238;28;20220;-81
2024/04/05 08:13:07;;;;;;;5.97;2.20;;;;;;;15.08;92.94;100101.63;5055959;28;20584;-79
2024/04/05 08:15:33;;;;;;;3.90;1.77;;;;;;;15.17;92.23;100076.72;5055304;28;20204;-81
2024/04/05 08:18:00;;;;;;;4.37;1.93;;;;;;;15.22;90.61;100101.91;5055795;28;20227;-81
2024/04/05 08:20:25;;;;;;;2.23;1.57;;;;;;;15.27;90.50;100094.66;5056178;28;20679;-81
2024/04/05 08:22:52;;;;;;;4.47;2.33;;;;;;;15.33;89.35;100114.56;5055859;28;20288;-83
2024/04/05 08:25:17;;;;;;;3.13;2.07;;;;;;;15.38;89.37;100127.50;5055406;28;20208;-82
2024/04/05 08:27:45;;;;;;;5.13;1.90;;;;;;;15.47;90.52;100101.66;5055054;28;20201;-80
2024/04/05 08:30:12;;;;;;;5.03;2.00;;;;;;;15.48;89.61;100102.53;5075295;28;20703;-81
2024/04/05 08:32:40;;;;;;;4.37;2.10;;;;;;;15.53;88.80;100094.44;5075582;28;20642;-81
2024/04/05 08:35:06;;;;;;;9.93;2.47;;;;;;;15.53;88.38;100121.59;5075091;28;20238;-81
2024/04/05 08:37:33;;;;;;;6.57;2.70;;;;;;;15.57;88.89;100115.25;5075719;28;20197;-80
2024/04/05 08:39:58;;;;;;;5.47;2.17;;;;;;;15.64;88.96;100106.19;5073299;28;20247;-82
2024/04/05 08:42:30;;;;;;;5.83;2.60;;;;;;;15.73;89.29;100089.13;5069084;28;20236;-78
2024/04/05 08:44:56;;;;;;;6.03;2.40;;;;;;;15.87;90.80;100054.28;5055979;28;20649;-80
2024/04/05 08:47:23;;;;;;;9.17;2.27;;;;;;;15.92;90.91;100046.19;5054954;28;20228;-81
2024/04/05 08:49:51;;;;;;;4.73;2.03;;;;;;;16.04;90.08;100035.91;5064351;28;20278;-80
2024/04/05 08:52:18;;;;;;;16.03;2.57;;;;;;;16.14;89.63;100061.81;5071801;28;20204;-82
2024/04/05 08:54:44;;;;;;;4.90;1.80;;;;;;;16.11;87.46;100086.50;5055910;28;20331;-80
2024/04/05 08:57:11;;;;;;;4.37;2.53;;;;;;;16.01;86.58;100122.94;5054680;28;20227;-80
2024/04/05 08:59:36;;;;;;;4.80;1.73;;;;;;;16.12;87.47;100111.91;5053197;28;20229;-78
2024/04/05 09:02:04;;;;;;;3.97;1.60;;;;;;;16.20;87.12;100117.66;5052311;28;20247;-79
2024/04/05 09:04:29;;;;;;;3.00;1.90;;;;;;;16.18;86.79;100123.94;5053070;28;20209;-78
2024/04/05 09:06:58;;;;;;;7.50;1.83;;;;;;;16.20;86.43;100125.56;5053988;28;20206;-80
2024/04/05 09:09:25;;;;;;;4.00;2.30;;;;;;;16.26;85.33;100133.16;5054868;28;20222;-80
2024/04/05 09:11:51;;;;;;;6.53;2.27;;;;;;;16.36;86.00;100140.66;5061813;28;20225;-78
2024/04/05 09:14:17;;;;;;;9.67;2.10;;;;;;;16.45;86.52;100132.28;5075118;28;20236;-78
2024/04/05 09:16:43;;;;;;;4.80;1.50;;;;;;;16.48;84.88;100143.53;5090722;28;20205;-78
2024/04/05 09:19:09;;;;;;;3.83;1.50;;;;;;;16.63;85.65;100141.94;5097875;28;20240;-78
2024/04/05 09:21:35;;;;;;;4.47;2.37;;;;;;;16.73;85.97;100117.75;5080373;28;20657;-79
2024/04/05 09:24:02;;;;;;;4.87;2.03;;;;;;;16.79;83.66;100144.69;5079222;28;20201;-80
2024/04/05 09:26:29;;;;;;;4.30;1.87;;;;;;;16.72;81.77;100203.03;5079132;28;20205;-81
2024/04/05 09:28:58;;;;;;;3.10;1.40;;;;;;;16.68;81.96;100204.97;5070727;28;20225;-80
2024/04/05 09:31:25;;;;;;;4.73;1.83;;;;;;;16.74;82.29;100223.13;5058855;28;20225;-80
2024/04/05 09:33:51;;;;;;;5.47;1.70;;;;;;;16.63;82.02;100236.81;5058539;28;20259;-81
2024/04/05 09:36:18;;;;;;;3.23;1.30;;;;;;;16.67;81.33;100240.16;5058261;28;20236;-80
2024/04/05 09:38:44;;;;;;;2.87;1.33;;;;;;;16.73;81.96;100234.59;5057360;28;20233;-82
2024/04/05 09:41:14;;;;;;;3.53;1.90;;;;;;;16.63;80.65;100244.72;5057602;28;20205;-83
2024/04/05 09:43:42;;;;;;;3.57;1.63;;;;;;;16.68;80.95;100247.13;5056765;28;20686;-81
2024/04/05 09:46:11;;;;;;;4.63;1.70;;;;;;;16.61;80.09;100262.41;5056735;28;20633;-82
2024/04/05 09:48:36;;;;;;;3.33;1.03;;;;;;;16.87;80.50;100263.81;5058239;28;20221;-82
2024/04/05 09:51:13;;;;;;;6.00;1.70;;;;;;;16.78;79.50;100282.66;5066601;28;20250;-80
2024/04/05 09:53:45;;;;;;;3.80;1.40;;;;;;;16.96;79.68;100288.88;4362806;28;10000828;-80
2024/04/05 09:56:18;;;;;;;2.13;1.20;;;;;;;17.04;79.18;100297.28;5070514;28;20224;-80
2024/04/05 09:58:46;;;;;;;2.27;1.40;;;;;;;17.18;78.77;100288.69;5075573;28;20225;-80
2024/04/05 10:01:14;;;;;;;2.90;1.37;;;;;;;17.23;80.55;100264.75;5078308;28;20204;-79
2024/04/05 10:03:41;;;;;;;2.60;1.37;;;;;;;17.14;80.06;100266.03;5076417;28;20700;-80
2024/04/05 10:06:14;;;;;;;4.37;1.60;;;;;;;17.21;79.08;100263.97;5075167;28;20265;-80
2024/04/05 10:08:40;;;;;;;2.30;1.40;;;;;;;17.09;78.15;100281.25;5075229;28;20240;-81
2024/04/05 10:11:13;;;;;;;3.27;1.50;;;;;;;17.33;78.47;100302.09;5075281;28;20672;-79
2024/04/05 10:13:39;;;;;;;4.33;1.47;;;;;;;17.33;78.92;100294.16;5075792;28;20707;-80
2024/04/05 10:16:06;;;;;;;4.27;1.40;;;;;;;17.31;77.08;100314.50;5074112;28;20209;-79
2024/04/05 10:18:34;;;;;;;2.60;1.20;;;;;;;17.36;77.21;100318.63;5075558;28;20224;-80
2024/04/05 10:21:02;;;;;;;3.83;1.50;;;;;;;17.43;78.49;100300.69;5074517;28;20201;-80
2024/04/05 10:23:28;;;;;;;2.57;1.40;;;;;;;17.21;77.74;100306.19;5074880;28;20203;-80
2024/04/05 10:25:54;;;;;;;2.53;1.53;;;;;;;17.41;78.27;100282.28;5067352;28;20701;-77
2024/04/05 10:28:21;;;;;;;2.80;1.43;;;;;;;17.48;77.46;100290.75;5055531;28;20272;-78
2024/04/05 10:30:49;;;;;;;2.07;1.00;;;;;;;17.09;76.99;100301.50;5052592;28;20236;-78
2024/04/05 10:33:17;;;;;;;3.67;1.50;;;;;;;17.13;79.16;100268.78;5055649;28;20211;-79
2024/04/05 10:35:43;;;;;;;2.83;1.60;;;;;;;17.40;79.16;100240.16;5053547;28;20247;-79
2024/04/05 10:38:09;;;;;;;3.50;1.67;;;;;;;17.55;78.78;100233.25;5054558;28;20238;-78
2024/04/05 10:40:35;;;;;;;3.17;1.30;;;;;;;17.36;77.43;100272.91;5052713;28;20194;-77
2024/04/05 10:43:06;;;;;;;3.03;1.40;;;;;;;17.32;76.80;100279.25;5054167;28;20255;-77
2024/04/05 10:45:34;;;;;;;3.47;1.30;;;;;;;17.46;76.38;100282.06;5054127;28;20205;-79
2024/04/05 10:48:00;;;;;;;3.10;1.37;;;;;;;17.54;76.53;100273.75;5054200;28;20308;-79
2024/04/05 10:50:26;;;;;;;3.63;1.27;;;;;;;17.71;77.42;100273.75;5054140;28;20297;-77
2024/04/05 10:52:52;;;;;;;4.93;1.80;;;;;;;17.83;77.23;100273.16;5061624;28;20283;-79
2024/04/05 10:55:19;;;;;;;3.73;1.40;;;;;;;17.78;77.89;100253.16;5055107;28;20265;-79
2024/04/05 10:57:45;;;;;;;3.23;1.50;;;;;;;17.88;76.67;100266.78;5051356;28;20707;-76
2024/04/05 11:00:12;;;;;;;3.13;1.07;;;;;;;17.92;76.27;100277.13;5054753;28;20214;-77
2024/04/05 11:02:40;;;;;;;2.20;1.37;;;;;;;17.93;77.24;100270.88;5054496;28;20586;-79
2024/04/05 11:05:10;;;;;;;4.73;1.50;;;;;;;17.91;75.59;100267.47;5053774;28;20702;-79
2024/04/05 11:07:36;;;;;;;3.07;1.23;;;;;;;17.89;75.76;100269.34;5055805;28;20267;-79
2024/04/05 11:10:13;;;;;;;3.43;1.60;;;;;;;17.99;76.00;100280.28;5054785;28;20274;-79
2024/04/05 11:12:39;;;;;;;2.17;1.30;;;;;;;17.92;76.06;100270.97;5075073;28;20246;-79
2024/04/05 11:15:07;;;;;;;2.33;1.30;;;;;;;18.02;77.03;100235.22;5074592;28;20210;-78
2024/04/05 11:17:33;;;;;;;3.27;1.47;;;;;;;18.01;75.26;100244.06;5070983;28;20198;-80
2024/04/05 11:20:07;;;;;;;3.03;1.10;;;;;;;18.13;76.57;100235.50;5074725;28;20802;-79
2024/04/05 11:22:33;;;;;;;2.07;1.07;;;;;;;18.13;76.19;100217.00;5075119;28;20203;-77